Uledi, Pennsylvania
Current Conditions -  °F | °C
As of 7:53 AM on Wednesday 22 Oct 2014 (Local Time) from KMGW Reporting Station
Overcast Overcast  
Wind Chill: 45°   Ceiling: 1100
Heat Index: 49°   Visibility: 10mi
Dew Point: 43°   Wind: 9mph
Humidity: 80%   Direction: 340°NNW
Pressure: 30.1"   Gusts: 16mph
Location:  39.9°N, 79.79°W
Report Text: KMGW 221153Z 34008G14KT 10SM OVC011 09/06 A3010 RMK AO2 SLP195 60011 70045 T00940061 10100 20089 51014
Loading
Personal Weather Stations






























Interactive Weather Map
Tropical Storm Tracking
New forecast layout! Learn more

10-Day Weather Forecast

Advertisements
Track Severe Weather on mobile